createdAt,value
2024-01-15T00:04:41.560Z,3.58
2024-01-15T00:09:44.674Z,3.55
2024-01-15T00:14:47.519Z,3.51
2024-01-15T00:19:50.374Z,3.55
2024-01-15T00:24:53.134Z,3.54
2024-01-15T00:29:56.081Z,3.49
2024-01-15T00:34:58.841Z,3.40
2024-01-15T00:40:02.129Z,3.42
2024-01-15T00:45:06.655Z,3.46
2024-01-15T00:50:10.492Z,3.44
2024-01-15T00:55:13.208Z,3.45
2024-01-15T01:00:16.421Z,3.46
2024-01-15T01:05:19.391Z,3.39
2024-01-15T01:10:22.457Z,3.34
2024-01-15T01:15:25.990Z,3.42
2024-01-15T01:20:28.802Z,3.45
2024-01-15T01:25:31.885Z,3.39
2024-01-15T01:30:34.745Z,3.30
2024-01-15T01:35:37.745Z,3.31
2024-01-15T01:40:40.739Z,3.29
2024-01-15T01:45:44.085Z,3.34
2024-01-15T01:50:47.336Z,3.33
2024-01-15T01:55:52.019Z,3.33
2024-01-15T02:00:55.185Z,3.39
2024-01-15T02:05:58.478Z,3.39
2024-01-15T02:11:03.384Z,3.31
2024-01-15T02:16:06.354Z,3.28
2024-01-15T02:21:10.926Z,3.31
2024-01-15T02:26:14.837Z,3.26
2024-01-15T02:31:18.466Z,3.23
2024-01-15T02:36:21.392Z,3.25
2024-01-15T02:41:24.288Z,3.24
2024-01-15T02:46:26.997Z,3.26
2024-01-15T02:51:30.208Z,3.27
2024-01-15T02:56:33.067Z,3.35
2024-01-15T03:01:35.897Z,3.39
2024-01-15T03:06:39.133Z,3.45
2024-01-15T03:11:42.198Z,3.44
2024-01-15T03:16:44.908Z,3.50
2024-01-15T03:21:47.838Z,3.54
2024-01-15T03:26:50.628Z,3.45
2024-01-15T03:31:54.299Z,3.46
2024-01-15T03:36:57.058Z,3.52
2024-01-15T03:41:59.862Z,3.50
2024-01-15T03:47:02.732Z,3.40
2024-01-15T03:52:06.265Z,3.33
2024-01-15T03:57:09.133Z,3.23
2024-01-15T04:02:12.027Z,3.21
2024-01-15T04:07:14.751Z,3.28
2024-01-15T04:12:17.696Z,3.25
2024-01-15T04:17:22.795Z,3.27
2024-01-15T04:22:26.829Z,3.31
2024-01-15T04:27:29.694Z,3.38
2024-01-15T04:32:32.642Z,3.46
2024-01-15T04:37:35.565Z,3.55
2024-01-15T04:42:38.668Z,3.58
2024-01-15T04:47:41.561Z,3.54
2024-01-15T04:52:44.773Z,3.44
2024-01-15T04:57:47.762Z,3.38
2024-01-15T05:02:52.480Z,3.37
2024-01-15T05:07:55.465Z,3.30
2024-01-15T05:12:58.228Z,3.23
2024-01-15T05:18:01.153Z,3.24
2024-01-15T05:23:04.490Z,3.22
2024-01-15T05:28:07.446Z,3.23
2024-01-15T05:33:10.230Z,3.25
2024-01-15T05:38:13.803Z,3.24
2024-01-15T05:43:16.532Z,3.21
2024-01-15T05:48:19.965Z,3.14
2024-01-15T05:53:22.846Z,3.10
2024-01-15T05:58:25.596Z,3.06
2024-01-15T06:03:28.771Z,2.96
2024-01-15T06:08:31.673Z,2.92
2024-01-15T06:13:34.654Z,2.94
2024-01-15T06:18:37.593Z,2.92
2024-01-15T06:23:41.572Z,2.96
2024-01-15T06:28:44.480Z,2.95
2024-01-15T06:33:49.674Z,2.99
2024-01-15T06:38:52.752Z,2.96
2024-01-15T06:43:56.892Z,2.96
2024-01-15T06:48:59.668Z,2.98
2024-01-15T06:54:03.148Z,2.99
2024-01-15T06:59:06.047Z,2.96
2024-01-15T07:04:09.453Z,2.96
2024-01-15T07:09:12.404Z,3.04
2024-01-15T07:14:15.617Z,3.10
2024-01-15T07:19:18.467Z,3.04
2024-01-15T07:24:21.432Z,3.08
2024-01-15T07:29:24.445Z,3.01
2024-01-15T07:34:27.503Z,3.06
2024-01-15T07:39:31.775Z,3.13
2024-01-15T07:44:35.043Z,3.14
2024-01-15T07:49:38.061Z,3.18
2024-01-15T07:54:41.077Z,3.24
2024-01-15T07:59:43.889Z,3.23
2024-01-15T08:04:47.191Z,3.37
2024-01-15T08:09:50.235Z,3.54
2024-01-15T08:14:53.042Z,3.59
2024-01-15T08:19:56.151Z,3.57
2024-01-15T08:24:59.222Z,3.50
2024-01-15T08:30:01.990Z,3.44
2024-01-15T08:35:05.423Z,3.35
2024-01-15T08:40:35.449Z,3.60
2024-01-15T08:45:38.574Z,3.78
2024-01-15T08:51:07.419Z,3.79
2024-01-15T08:56:10.176Z,3.80
2024-01-15T09:01:13.294Z,3.75
2024-01-15T09:06:16.289Z,3.66
2024-01-15T09:11:19.098Z,3.66
2024-01-15T09:16:21.795Z,3.71
2024-01-15T09:21:25.802Z,3.80
2024-01-15T09:26:28.731Z,3.77
2024-01-15T09:31:32.627Z,3.81
2024-01-15T09:36:42.522Z,3.78
2024-01-15T09:41:45.499Z,3.78
2024-01-15T09:46:51.459Z,3.91
2024-01-15T09:52:06.133Z,3.92
2024-01-15T09:57:14.567Z,4.06
2024-01-15T10:02:19.566Z,4.16
2024-01-15T10:07:24.535Z,4.38
2024-01-15T10:12:28.479Z,4.41
2024-01-15T10:17:32.545Z,4.30
2024-01-15T10:22:38.856Z,4.30
2024-01-15T10:27:43.046Z,4.29
2024-01-15T10:33:00.848Z,4.36
2024-01-15T10:38:04.206Z,4.57
2024-01-15T10:43:06.986Z,4.45
2024-01-15T10:48:09.965Z,4.55
2024-01-15T10:53:15.901Z,4.62
2024-01-15T10:58:19.778Z,4.63
2024-01-15T11:03:23.405Z,4.47
2024-01-15T11:08:26.855Z,4.33
2024-01-15T11:13:32.388Z,4.34
2024-01-15T11:18:45.263Z,4.41
2024-01-15T11:24:00.867Z,4.21
2024-01-15T11:29:30.980Z,3.98
2024-01-15T11:35:00.056Z,3.84
2024-01-15T11:40:12.353Z,3.85
2024-01-15T11:45:20.588Z,3.77
2024-01-15T11:50:23.721Z,3.77
2024-01-15T11:55:35.494Z,3.86
2024-01-15T12:00:50.006Z,4.13
2024-01-15T12:05:56.055Z,4.09
2024-01-15T12:10:59.117Z,4.12
2024-01-15T12:16:05.236Z,4.23
2024-01-15T12:21:09.142Z,4.38
2024-01-15T12:26:12.134Z,4.51
2024-01-15T12:31:14.964Z,4.55
2024-01-15T12:36:22.348Z,4.31
2024-01-15T12:41:25.230Z,4.06
2024-01-15T12:46:28.618Z,4.04
2024-01-15T12:51:31.558Z,4.12
2024-01-15T12:56:34.264Z,4.20
2024-01-15T13:01:37.611Z,4.14
2024-01-15T13:06:41.835Z,4.10
2024-01-15T13:11:46.660Z,4.07
2024-01-15T13:16:49.584Z,3.96
2024-01-15T13:21:52.786Z,3.77
2024-01-15T13:26:58.590Z,3.56
2024-01-15T13:37:27.451Z,2.94
2024-01-15T13:42:48.942Z,2.89
2024-01-15T13:48:54.710Z,2.86
2024-01-15T13:54:02.256Z,2.87
2024-01-15T13:59:06.552Z,2.93
2024-01-15T14:04:09.287Z,3.01
2024-01-15T14:09:12.150Z,2.94
2024-01-15T14:14:15.636Z,2.91
2024-01-15T14:19:20.090Z,2.90
2024-01-15T14:24:23.213Z,3.02
2024-01-15T14:34:55.169Z,2.88
2024-01-15T14:39:58.198Z,2.76
2024-01-15T14:45:03.472Z,2.74
2024-01-15T14:50:11.380Z,2.61
2024-01-15T14:55:14.504Z,2.60
2024-01-15T15:00:18.286Z,2.53
2024-01-15T15:05:21.351Z,2.51
2024-01-15T15:10:24.170Z,2.48
2024-01-15T15:15:27.065Z,2.47
2024-01-15T15:20:30.353Z,2.36
2024-01-15T15:25:33.321Z,2.33
2024-01-15T15:30:36.303Z,2.39
2024-01-15T15:35:40.514Z,2.39
2024-01-15T15:40:43.343Z,2.38
2024-01-15T15:45:46.138Z,2.43
2024-01-15T15:50:49.009Z,2.40
2024-01-15T15:55:51.833Z,2.27
2024-01-15T16:00:55.095Z,2.26
2024-01-15T16:05:58.738Z,2.32
2024-01-15T16:11:01.729Z,2.28
2024-01-15T16:23:09.546Z,2.31
2024-01-15T16:23:36.632Z,2.38
2024-01-15T16:26:50.797Z,2.37
2024-01-15T16:31:53.856Z,2.24
2024-01-15T16:36:56.680Z,2.28
2024-01-15T16:41:59.870Z,2.22
2024-01-15T16:47:07.330Z,2.24
2024-01-15T16:52:13.539Z,2.16
2024-01-15T16:57:16.375Z,2.03
2024-01-15T17:02:19.380Z,2.08
2024-01-15T17:07:22.220Z,1.96
2024-01-15T17:12:25.020Z,1.95
2024-01-15T17:17:27.799Z,1.90
2024-01-15T17:22:32.253Z,1.95
2024-01-15T17:27:35.122Z,2.01
2024-01-15T17:32:38.190Z,2.00
2024-01-15T17:37:41.031Z,1.87
2024-01-15T17:42:43.843Z,1.84
2024-01-15T17:47:46.812Z,1.96
2024-01-15T17:52:49.739Z,1.91
2024-01-15T17:57:53.781Z,1.90
2024-01-15T18:02:56.957Z,1.99
2024-01-15T18:08:00.172Z,1.97
2024-01-15T18:13:02.879Z,1.88
2024-01-15T18:18:06.392Z,1.87
2024-01-15T18:23:09.460Z,1.98
2024-01-15T18:28:15.663Z,2.00
2024-01-15T18:33:23.261Z,2.01
2024-01-15T18:38:26.088Z,2.07
2024-01-15T18:43:35.281Z,2.05
2024-01-15T18:48:38.151Z,2.08
2024-01-15T18:53:41.200Z,2.15
2024-01-15T18:58:44.889Z,2.06
2024-01-15T19:03:47.653Z,2.02
2024-01-15T19:08:51.770Z,1.98
2024-01-15T19:13:54.518Z,1.98
2024-01-15T19:18:57.537Z,1.95
2024-01-15T19:24:00.380Z,1.99
2024-01-15T19:29:04.415Z,2.02
2024-01-15T19:34:07.225Z,2.03
2024-01-15T19:39:10.698Z,2.03
2024-01-15T19:44:13.593Z,2.03
2024-01-15T19:49:21.724Z,1.98
2024-01-15T19:54:24.425Z,2.00
2024-01-15T19:59:27.226Z,2.09
2024-01-15T20:04:30.067Z,2.05
2024-01-15T20:09:33.105Z,1.97
2024-01-15T20:14:36.628Z,1.83
2024-01-15T20:19:40.714Z,1.76
2024-01-15T20:24:43.692Z,1.77
2024-01-15T20:29:46.709Z,1.53
2024-01-15T20:34:49.686Z,1.48
2024-01-15T20:39:52.702Z,1.46
2024-01-15T20:44:55.506Z,1.41
2024-01-15T20:49:58.473Z,1.35
2024-01-15T20:55:01.244Z,1.22
2024-01-15T21:00:05.656Z,1.02
2024-01-15T21:05:09.058Z,0.93
2024-01-15T21:10:11.967Z,0.87
2024-01-15T21:15:15.581Z,0.81
2024-01-15T21:20:18.454Z,0.90
2024-01-15T21:25:22.911Z,0.83
2024-01-15T21:30:26.314Z,0.78
2024-01-15T21:35:29.448Z,0.71
2024-01-15T21:40:33.365Z,0.72
2024-01-15T21:45:36.112Z,0.81
2024-01-15T21:50:38.773Z,0.73
2024-01-15T21:55:41.506Z,0.67
2024-01-15T22:00:44.393Z,0.61
2024-01-15T22:05:47.832Z,0.55
2024-01-15T22:10:50.678Z,0.48
2024-01-15T22:15:53.417Z,0.41
2024-01-15T22:20:57.985Z,0.30
2024-01-15T22:26:02.314Z,0.22
2024-01-15T22:31:05.097Z,0.21
2024-01-15T22:36:08.203Z,0.19
2024-01-15T22:41:11.051Z,0.18
2024-01-15T22:46:14.115Z,0.23
2024-01-15T22:51:16.860Z,0.16
2024-01-15T22:56:20.766Z,0.19
2024-01-15T23:01:24.251Z,0.24
2024-01-15T23:06:27.260Z,0.17
2024-01-15T23:11:30.012Z,0.15
2024-01-15T23:16:32.817Z,-0.06
2024-01-15T23:21:35.581Z,-0.05
2024-01-15T23:26:38.357Z,-0.03
2024-01-15T23:31:41.785Z,-0.05
2024-01-15T23:36:44.610Z,-0.17
2024-01-15T23:41:47.439Z,-0.27
2024-01-15T23:46:50.363Z,-0.30
2024-01-15T23:51:53.795Z,-0.43
2024-01-15T23:56:56.578Z,-0.48
